Time;durP1;ratioP1;P1;durP2;ratioP2;P2;SDS_P1;SDS_P2;PMS_P1;PMS_P2;Temp;Humidity;BMP_temperature;BMP_pressure;BME280_temperature;BME280_humidity;BME280_pressure;Samples;Min_cycle;Max_cycle;Signal;HPM_P1;HPM_P2
2023/09/13 00:02:24;;;;;;;7.00;2.80;;;;;;;;;;5053015;28;20425;-75
2023/09/13 00:04:52;;;;;;;4.70;2.73;;;;;;;;;;5053065;28;20487;-75
2023/09/13 00:07:20;;;;;;;4.40;2.77;;;;;;;;;;5053211;28;20841;-75
2023/09/13 00:09:47;;;;;;;3.90;2.33;;;;;;;;;;5053237;28;20441;-75
2023/09/13 00:12:16;;;;;;;4.00;2.50;;;;;;;;;;5052712;28;20437;-75
2023/09/13 00:14:43;;;;;;;5.93;3.20;;;;;;;;;;5052848;28;20799;-75
2023/09/13 00:17:11;;;;;;;4.77;3.30;;;;;;;;;;5053151;28;20444;-75
2023/09/13 00:19:39;;;;;;;4.30;2.60;;;;;;;;;;5052765;28;20523;-75
2023/09/13 00:22:07;;;;;;;4.20;2.53;;;;;;;;;;5052820;28;20488;-75
2023/09/13 00:24:34;;;;;;;4.53;2.37;;;;;;;;;;5053173;28;20487;-75
2023/09/13 00:27:01;;;;;;;3.90;2.70;;;;;;;;;;5052760;28;20978;-75
2023/09/13 00:29:33;;;;;;;3.70;2.50;;;;;;;;;;5053255;28;20499;-75
2023/09/13 00:32:00;;;;;;;4.50;3.00;;;;;;;;;;5053204;28;20772;-75
2023/09/13 00:34:29;;;;;;;6.83;3.20;;;;;;;;;;5053082;28;20430;-75
2023/09/13 00:36:57;;;;;;;3.40;2.60;;;;;;;;;;5053187;28;20442;-75
2023/09/13 00:39:24;;;;;;;7.27;2.90;;;;;;;;;;5053267;28;20477;-75
2023/09/13 00:41:51;;;;;;;6.13;2.60;;;;;;;;;;5052666;28;20473;-75
2023/09/13 00:44:18;;;;;;;4.30;3.00;;;;;;;;;;5053035;28;20483;-75
2023/09/13 00:46:47;;;;;;;5.50;2.87;;;;;;;;;;5053056;28;20488;-75
2023/09/13 00:49:14;;;;;;;4.27;3.00;;;;;;;;;;5053042;28;20487;-75
2023/09/13 00:51:42;;;;;;;3.80;2.67;;;;;;;;;;5053039;28;20477;-75
2023/09/13 00:54:09;;;;;;;4.63;3.27;;;;;;;;;;5052877;28;20918;-75
2023/09/13 00:56:37;;;;;;;4.53;3.33;;;;;;;;;;5052865;28;20429;-75
2023/09/13 00:59:05;;;;;;;10.37;3.87;;;;;;;;;;5052492;28;20466;-75
2023/09/13 01:01:34;;;;;;;4.73;3.20;;;;;;;;;;5052990;28;20425;-75
2023/09/13 01:04:03;;;;;;;4.60;3.67;;;;;;;;;;5052701;28;20437;-75
2023/09/13 01:06:30;;;;;;;5.13;3.47;;;;;;;;;;5052751;28;20441;-75
2023/09/13 01:08:57;;;;;;;4.20;2.80;;;;;;;;;;5052794;28;20477;-75
2023/09/13 01:11:25;;;;;;;5.37;3.03;;;;;;;;;;5052633;28;20860;-75
2023/09/13 01:13:52;;;;;;;4.50;3.20;;;;;;;;;;5052347;28;20546;-75
2023/09/13 01:16:23;;;;;;;5.17;2.40;;;;;;;;;;5052828;28;20834;-75
2023/09/13 01:18:55;;;;;;;4.23;2.90;;;;;;;;;;5052788;28;20449;-75
2023/09/13 01:21:41;;;;;;;3.60;2.37;;;;;;;;;;5052281;28;20519;-75
2023/09/13 01:24:24;;;;;;;5.20;2.90;;;;;;;;;;5054764;28;20514;-75
2023/09/13 01:27:03;;;;;;;7.20;2.30;;;;;;;;;;5055933;28;20900;-75
2023/09/13 01:29:32;;;;;;;5.37;3.20;;;;;;;;;;5056278;28;20421;-75
2023/09/13 01:32:00;;;;;;;4.03;3.20;;;;;;;;;;5056324;28;20433;-75
2023/09/13 01:34:27;;;;;;;7.73;3.67;;;;;;;;;;5055792;28;20433;-75
2023/09/13 01:36:56;;;;;;;8.40;3.90;;;;;;;;;;5056052;28;20825;-75
2023/09/13 01:39:23;;;;;;;4.87;3.97;;;;;;;;;;5055693;28;20439;-75
2023/09/13 01:41:53;;;;;;;6.50;3.83;;;;;;;;;;5055492;28;20429;-75
2023/09/13 01:44:21;;;;;;;7.23;3.90;;;;;;;;;;5055751;28;20904;-75
2023/09/13 01:46:50;;;;;;;6.33;4.37;;;;;;;;;;5055834;28;20445;-75
2023/09/13 01:49:20;;;;;;;4.70;4.20;;;;;;;;;;5055868;28;20472;-75
2023/09/13 01:51:48;;;;;;;7.70;4.60;;;;;;;;;;5055448;28;20920;-75
2023/09/13 01:54:16;;;;;;;7.50;4.50;;;;;;;;;;5055716;28;20456;-75
2023/09/13 01:56:43;;;;;;;6.60;4.10;;;;;;;;;;5055631;28;20433;-75
2023/09/13 01:59:10;;;;;;;4.57;3.17;;;;;;;;;;5055346;28;20469;-75
2023/09/13 02:01:38;;;;;;;9.67;4.40;;;;;;;;;;5055189;28;20481;-76
2023/09/13 02:04:07;;;;;;;6.60;4.40;;;;;;;;;;5055263;28;20446;-75
2023/09/13 02:06:35;;;;;;;5.13;4.37;;;;;;;;;;5055698;28;20481;-75
2023/09/13 02:09:03;;;;;;;6.33;3.77;;;;;;;;;;5055556;28;20491;-75
2023/09/13 02:11:30;;;;;;;5.20;4.70;;;;;;;;;;5055341;28;20524;-75
2023/09/13 02:13:57;;;;;;;6.77;4.70;;;;;;;;;;5055314;28;20483;-75
2023/09/13 02:16:24;;;;;;;9.57;4.27;;;;;;;;;;5055546;28;20441;-75
2023/09/13 02:18:52;;;;;;;6.50;5.20;;;;;;;;;;5055527;28;20438;-75
2023/09/13 02:21:20;;;;;;;4.40;3.60;;;;;;;;;;5054837;28;20477;-75
2023/09/13 02:23:48;;;;;;;5.97;4.40;;;;;;;;;;5055175;28;20433;-75
2023/09/13 02:26:22;;;;;;;5.33;3.90;;;;;;;;;;5054880;28;20441;-75
2023/09/13 02:28:49;;;;;;;6.53;4.40;;;;;;;;;;5055013;28;20473;-75
2023/09/13 02:31:22;;;;;;;5.33;3.50;;;;;;;;;;5054941;28;20487;-75
2023/09/13 02:33:49;;;;;;;7.63;4.70;;;;;;;;;;5054851;28;20822;-75
2023/09/13 02:36:16;;;;;;;6.17;4.07;;;;;;;;;;5054630;28;20532;-75
2023/09/13 02:38:45;;;;;;;7.43;4.53;;;;;;;;;;5054535;28;20496;-75
2023/09/13 02:41:12;;;;;;;9.10;4.13;;;;;;;;;;5054810;28;20477;-75
2023/09/13 02:43:40;;;;;;;8.93;4.50;;;;;;;;;;5054801;28;20915;-75
2023/09/13 02:46:07;;;;;;;8.30;4.87;;;;;;;;;;5054483;28;20465;-75
2023/09/13 02:48:35;;;;;;;6.50;4.90;;;;;;;;;;5054691;28;20465;-75
2023/09/13 02:51:02;;;;;;;6.70;4.93;;;;;;;;;;5054603;28;20496;-75
2023/09/13 02:53:31;;;;;;;7.60;5.80;;;;;;;;;;5054570;28;20429;-75
2023/09/13 02:56:05;;;;;;;5.50;4.33;;;;;;;;;;5054765;28;20801;-75
2023/09/13 02:58:32;;;;;;;6.47;4.73;;;;;;;;;;5054448;28;20464;-75
2023/09/13 03:01:03;;;;;;;10.03;5.50;;;;;;;;;;5054439;28;20886;-75
2023/09/13 03:03:31;;;;;;;9.40;5.57;;;;;;;;;;5054448;28;20426;-75
2023/09/13 03:06:06;;;;;;;8.13;5.90;;;;;;;;;;5054369;28;20491;-75
2023/09/13 03:08:33;;;;;;;7.83;5.60;;;;;;;;;;5054041;28;20425;-75
2023/09/13 03:11:10;;;;;;;10.00;5.00;;;;;;;;;;5054681;28;20446;-75
2023/09/13 03:13:38;;;;;;;9.10;6.23;;;;;;;;;;5053816;28;20975;-75
2023/09/13 03:16:11;;;;;;;6.90;5.00;;;;;;;;;;5054147;28;20473;-75
2023/09/13 03:18:38;;;;;;;7.90;5.40;;;;;;;;;;5053788;28;20429;-75
2023/09/13 03:21:08;;;;;;;7.70;4.47;;;;;;;;;;5053680;28;20477;-75
2023/09/13 03:23:35;;;;;;;6.30;4.30;;;;;;;;;;5053803;28;20468;-75
2023/09/13 03:26:02;;;;;;;7.77;5.00;;;;;;;;;;5053964;28;20434;-75
2023/09/13 03:28:31;;;;;;;6.00;5.20;;;;;;;;;;5053916;28;20533;-75
2023/09/13 03:30:58;;;;;;;6.80;4.90;;;;;;;;;;5053834;28;20441;-75
2023/09/13 03:33:26;;;;;;;6.73;4.47;;;;;;;;;;5053846;28;20495;-75
2023/09/13 03:35:54;;;;;;;8.90;4.90;;;;;;;;;;5054095;28;20773;-75
2023/09/13 03:38:21;;;;;;;6.43;5.13;;;;;;;;;;5053534;28;20924;-75
2023/09/13 03:40:48;;;;;;;7.53;5.30;;;;;;;;;;5053668;28;20477;-76
2023/09/13 03:43:20;;;;;;;8.87;5.70;;;;;;;;;;5053391;28;20475;-75
2023/09/13 03:45:49;;;;;;;8.60;4.70;;;;;;;;;;5053174;28;20429;-75
2023/09/13 03:48:16;;;;;;;7.40;6.10;;;;;;;;;;5053261;28;20465;-75
2023/09/13 03:50:44;;;;;;;9.10;5.77;;;;;;;;;;5053494;28;20491;-75
2023/09/13 03:53:11;;;;;;;9.80;6.63;;;;;;;;;;5053701;28;20529;-75
2023/09/13 03:55:38;;;;;;;9.00;7.23;;;;;;;;;;5053177;28;20433;-75
2023/09/13 03:58:10;;;;;;;8.23;5.80;;;;;;;;;;5053089;28;20441;-75
2023/09/13 04:00:38;;;;;;;8.17;5.97;;;;;;;;;;5053473;28;20496;-75
2023/09/13 04:03:06;;;;;;;8.47;7.57;;;;;;;;;;5053137;28;20437;-75
2023/09/13 04:05:34;;;;;;;6.37;5.70;;;;;;;;;;5052987;28;20491;-75
2023/09/13 04:08:01;;;;;;;7.60;5.40;;;;;;;;;;5053056;28;20425;-75
2023/09/13 04:10:28;;;;;;;7.30;5.83;;;;;;;;;;5052982;28;20437;-75
2023/09/13 04:12:56;;;;;;;9.23;5.33;;;;;;;;;;5053193;28;20480;-75
2023/09/13 04:15:28;;;;;;;6.83;5.10;;;;;;;;;;5052912;28;20479;-75
2023/09/13 04:17:55;;;;;;;7.27;5.03;;;;;;;;;;5052961;28;20888;-75
2023/09/13 04:20:24;;;;;;;6.77;5.30;;;;;;;;;;5053404;28;20438;-75
2023/09/13 04:22:51;;;;;;;7.30;4.67;;;;;;;;;;5053190;28;20434;-75
2023/09/13 04:25:19;;;;;;;5.80;4.77;;;;;;;;;;5053411;28;20468;-75
2023/09/13 04:27:46;;;;;;;7.57;5.20;;;;;;;;;;5052738;28;20469;-75
2023/09/13 04:30:13;;;;;;;7.70;5.07;;;;;;;;;;5052751;28;20562;-75
2023/09/13 04:32:41;;;;;;;5.37;4.17;;;;;;;;;;5053066;28;20433;-75
2023/09/13 04:35:09;;;;;;;5.90;4.87;;;;;;;;;;5052755;28;20437;-75
2023/09/13 04:37:37;;;;;;;6.30;4.83;;;;;;;;;;5052786;28;20433;-75
2023/09/13 04:40:12;;;;;;;7.10;5.40;;;;;;;;;;5053030;28;20478;-75
2023/09/13 04:42:42;;;;;;;7.60;4.93;;;;;;;;;;5052657;28;20440;-75
2023/09/13 04:45:10;;;;;;;12.03;5.80;;;;;;;;;;5052779;28;20441;-75
2023/09/13 04:47:37;;;;;;;7.87;6.00;;;;;;;;;;5052696;28;20441;-75
2023/09/13 04:50:05;;;;;;;9.03;6.43;;;;;;;;;;5052996;28;20441;-75
2023/09/13 04:52:32;;;;;;;7.53;6.00;;;;;;;;;;5052642;28;20920;-75
2023/09/13 04:55:01;;;;;;;7.57;4.97;;;;;;;;;;5052929;28;20437;-75
2023/09/13 04:57:30;;;;;;;9.83;5.87;;;;;;;;;;5053838;28;20480;-75
2023/09/13 04:59:57;;;;;;;7.60;5.73;;;;;;;;;;5056462;28;20550;-75
2023/09/13 05:02:25;;;;;;;10.27;5.23;;;;;;;;;;5056307;28;20473;-75
2023/09/13 05:04:52;;;;;;;7.20;5.70;;;;;;;;;;5056841;28;20437;-76
2023/09/13 05:07:19;;;;;;;6.83;5.90;;;;;;;;;;5056403;28;20436;-75
2023/09/13 05:09:46;;;;;;;9.87;5.63;;;;;;;;;;5056508;28;20489;-76
2023/09/13 05:12:15;;;;;;;6.23;5.13;;;;;;;;;;5056142;28;20490;-75
2023/09/13 05:14:43;;;;;;;9.47;5.40;;;;;;;;;;5056233;28;20430;-75
2023/09/13 05:17:11;;;;;;;6.20;5.10;;;;;;;;;;5055889;28;20825;-75
2023/09/13 05:19:38;;;;;;;9.43;5.70;;;;;;;;;;5056093;28;21041;-75
2023/09/13 05:22:06;;;;;;;8.30;6.30;;;;;;;;;;5056128;28;20457;-75
2023/09/13 05:24:33;;;;;;;8.67;5.90;;;;;;;;;;5056115;28;20433;-75
2023/09/13 05:27:00;;;;;;;7.40;5.93;;;;;;;;;;5055897;28;20437;-75
2023/09/13 05:29:29;;;;;;;11.83;6.70;;;;;;;;;;5055696;28;20449;-75
2023/09/13 05:31:56;;;;;;;8.87;5.67;;;;;;;;;;5055949;28;20493;-75
2023/09/13 05:34:23;;;;;;;6.17;5.57;;;;;;;;;;5056259;28;20433;-75
2023/09/13 05:36:51;;;;;;;7.77;5.90;;;;;;;;;;5055924;28;20438;-75
2023/09/13 05:39:18;;;;;;;9.53;6.17;;;;;;;;;;5055646;28;20445;-75
2023/09/13 05:41:45;;;;;;;7.70;6.10;;;;;;;;;;5055964;28;20477;-75
2023/09/13 05:44:13;;;;;;;7.53;6.50;;;;;;;;;;5055395;28;20990;-75
2023/09/13 05:46:41;;;;;;;11.27;6.67;;;;;;;;;;5055453;28;20986;-75
2023/09/13 05:49:09;;;;;;;9.90;6.47;;;;;;;;;;5055669;28;20829;-75
2023/09/13 05:51:36;;;;;;;6.83;5.00;;;;;;;;;;5055702;28;20476;-75
2023/09/13 05:54:03;;;;;;;9.03;6.30;;;;;;;;;;5055241;28;20500;-75
2023/09/13 05:56:31;;;;;;;7.67;5.70;;;;;;;;;;5055213;28;20429;-75
2023/09/13 05:58:58;;;;;;;10.50;6.00;;;;;;;;;;5054982;28;20512;-75
2023/09/13 06:01:25;;;;;;;8.20;5.80;;;;;;;;;;5055641;28;20482;-75
2023/09/13 06:03:54;;;;;;;6.50;5.30;;;;;;;;;;5055069;28;20437;-75
2023/09/13 06:06:21;;;;;;;9.90;5.50;;;;;;;;;;5055367;28;20472;-75
2023/09/13 06:08:48;;;;;;;6.43;5.80;;;;;;;;;;5054811;28;20442;-75
2023/09/13 06:11:17;;;;;;;10.30;5.73;;;;;;;;;;5055274;28;20647;-75
2023/09/13 06:13:45;;;;;;;8.73;5.83;;;;;;;;;;5055061;28;20442;-75
2023/09/13 06:16:12;;;;;;;8.13;5.60;;;;;;;;;;5055175;28;20491;-75
2023/09/13 06:18:39;;;;;;;8.07;6.27;;;;;;;;;;5055079;28;20437;-75
2023/09/13 06:21:08;;;;;;;8.30;5.97;;;;;;;;;;5055218;28;20523;-75
2023/09/13 06:23:38;;;;;;;7.93;6.30;;;;;;;;;;5054744;28;20417;-75
2023/09/13 06:26:06;;;;;;;9.13;6.67;;;;;;;;;;5055084;28;20467;-75
2023/09/13 06:28:33;;;;;;;9.80;6.47;;;;;;;;;;5054826;28;20499;-75
2023/09/13 06:31:01;;;;;;;9.83;5.97;;;;;;;;;;5054869;28;20506;-75
2023/09/13 06:33:33;;;;;;;13.20;7.50;;;;;;;;;;5055082;28;20430;-75
2023/09/13 06:36:00;;;;;;;6.90;5.70;;;;;;;;;;5054565;28;20418;-75
2023/09/13 06:38:29;;;;;;;11.23;7.10;;;;;;;;;;5054532;28;20434;-75
2023/09/13 06:40:58;;;;;;;8.73;6.07;;;;;;;;;;5054617;28;20441;-75
2023/09/13 06:43:26;;;;;;;9.80;6.00;;;;;;;;;;5054551;28;20488;-75
2023/09/13 06:45:53;;;;;;;7.93;5.40;;;;;;;;;;5054589;28;20496;-75
2023/09/13 06:48:20;;;;;;;11.73;7.63;;;;;;;;;;5054508;28;20465;-75
2023/09/13 06:50:47;;;;;;;13.30;9.60;;;;;;;;;;5054488;28;20445;-75
2023/09/13 06:53:15;;;;;;;10.53;6.93;;;;;;;;;;5054470;28;20487;-75
2023/09/13 06:55:43;;;;;;;11.10;6.57;;;;;;;;;;5054074;28;20615;-75
2023/09/13 06:58:11;;;;;;;9.20;5.97;;;;;;;;;;5054355;28;20476;-74
2023/09/13 07:00:39;;;;;;;8.20;5.40;;;;;;;;;;5054325;28;20429;-75
2023/09/13 07:03:08;;;;;;;7.13;5.13;;;;;;;;;;5054454;28;20484;-75
2023/09/13 07:05:35;;;;;;;7.50;5.40;;;;;;;;;;5054248;28;20943;-75
2023/09/13 07:08:03;;;;;;;6.83;6.13;;;;;;;;;;5054154;28;20919;-75
2023/09/13 07:10:30;;;;;;;8.43;5.90;;;;;;;;;;5054185;28;20740;-75
2023/09/13 07:12:59;;;;;;;8.57;5.30;;;;;;;;;;5054201;28;20479;-75
2023/09/13 07:15:27;;;;;;;8.27;6.03;;;;;;;;;;5054137;28;20438;-75
2023/09/13 07:17:54;;;;;;;8.20;5.90;;;;;;;;;;5054050;28;20544;-75
2023/09/13 07:20:22;;;;;;;10.40;6.73;;;;;;;;;;5053182;28;20438;-75
2023/09/13 07:22:49;;;;;;;6.40;4.33;;;;;;;;;;5053113;28;20515;-75
2023/09/13 07:25:16;;;;;;;5.70;4.33;;;;;;;;;;5053603;28;20929;-75
2023/09/13 07:27:44;;;;;;;5.60;3.73;;;;;;;;;;5053427;28;20934;-75
2023/09/13 07:30:13;;;;;;;7.20;5.20;;;;;;;;;;5054125;28;20445;-76
2023/09/13 07:32:40;;;;;;;5.23;3.43;;;;;;;;;;5053657;28;20515;-76
2023/09/13 07:35:08;;;;;;;6.53;3.73;;;;;;;;;;5053759;28;20796;-76
2023/09/13 07:37:35;;;;;;;8.00;3.90;;;;;;;;;;5053764;28;20430;-76
2023/09/13 07:40:04;;;;;;;4.97;3.80;;;;;;;;;;5053635;28;20788;-76
2023/09/13 07:42:31;;;;;;;5.50;4.50;;;;;;;;;;5053099;28;20480;-76
2023/09/13 07:44:59;;;;;;;4.30;3.50;;;;;;;;;;5053456;28;20429;-76
2023/09/13 07:47:29;;;;;;;5.20;4.03;;;;;;;;;;5053162;28;20520;-76
2023/09/13 07:49:57;;;;;;;5.67;3.80;;;;;;;;;;5053508;28;20500;-76
2023/09/13 07:52:24;;;;;;;8.10;4.27;;;;;;;;;;5053073;28;20473;-76
2023/09/13 07:54:52;;;;;;;9.20;4.80;;;;;;;;;;5053085;28;20520;-76
2023/09/13 07:57:19;;;;;;;7.47;4.27;;;;;;;;;;5053553;28;20907;-76
2023/09/13 07:59:51;;;;;;;5.57;4.00;;;;;;;;;;5052924;28;20864;-76
2023/09/13 08:02:18;;;;;;;6.30;4.50;;;;;;;;;;5053360;28;20884;-76
2023/09/13 08:04:49;;;;;;;5.87;3.90;;;;;;;;;;5053204;28;20807;-76
2023/09/13 08:07:17;;;;;;;5.67;4.20;;;;;;;;;;5052945;28;20463;-76
2023/09/13 08:09:44;;;;;;;5.30;4.13;;;;;;;;;;5053244;28;20438;-76
2023/09/13 08:12:11;;;;;;;5.20;3.90;;;;;;;;;;5053195;28;20441;-76
2023/09/13 08:14:39;;;;;;;7.77;4.17;;;;;;;;;;5053350;28;20440;-75
2023/09/13 08:17:06;;;;;;;5.30;3.93;;;;;;;;;;5053451;28;20892;-76
2023/09/13 08:19:33;;;;;;;8.00;3.83;;;;;;;;;;5052874;28;20908;-76
2023/09/13 08:22:04;;;;;;;6.10;4.90;;;;;;;;;;5052657;28;20848;-75
2023/09/13 08:24:31;;;;;;;6.37;4.00;;;;;;;;;;5053182;28;20422;-76
2023/09/13 08:26:59;;;;;;;4.80;3.50;;;;;;;;;;5052661;28;20469;-76
2023/09/13 08:29:26;;;;;;;6.33;3.63;;;;;;;;;;5052973;28;20477;-76
2023/09/13 08:31:54;;;;;;;4.80;3.30;;;;;;;;;;5053501;28;20843;-76
2023/09/13 08:34:22;;;;;;;5.07;3.57;;;;;;;;;;5056749;28;20562;-76
2023/09/13 08:36:55;;;;;;;6.20;4.20;;;;;;;;;;5056776;28;20530;-76
2023/09/13 08:39:24;;;;;;;6.47;3.87;;;;;;;;;;5057011;28;20433;-76
2023/09/13 08:41:54;;;;;;;5.20;3.63;;;;;;;;;;5056563;28;20542;-76
2023/09/13 08:44:22;;;;;;;5.80;4.03;;;;;;;;;;5056574;28;20920;-76
2023/09/13 08:46:50;;;;;;;5.97;4.03;;;;;;;;;;5056909;28;20516;-76
2023/09/13 08:49:18;;;;;;;4.63;3.90;;;;;;;;;;5056925;28;20439;-73
2023/09/13 08:51:45;;;;;;;9.27;3.80;;;;;;;;;;5056803;28;20441;-73
2023/09/13 08:54:13;;;;;;;6.90;4.40;;;;;;;;;;5056690;28;20437;-73
2023/09/13 08:56:43;;;;;;;4.77;3.60;;;;;;;;;;5056408;28;20469;-73
2023/09/13 08:59:10;;;;;;;5.17;4.10;;;;;;;;;;5056664;28;20492;-73
2023/09/13 09:01:38;;;;;;;4.80;4.23;;;;;;;;;;5056188;28;20487;-73
2023/09/13 09:04:05;;;;;;;4.80;3.90;;;;;;;;;;5056571;28;20479;-73
2023/09/13 09:06:33;;;;;;;5.43;4.87;;;;;;;;;;5056494;28;20436;-74
2023/09/13 09:09:05;;;;;;;5.80;4.70;;;;;;;;;;5056096;28;20954;-73
2023/09/13 09:11:33;;;;;;;6.57;5.30;;;;;;;;;;5056441;28;20427;-74
2023/09/13 09:14:02;;;;;;;5.97;4.90;;;;;;;;;;5056007;28;20475;-73
2023/09/13 09:16:31;;;;;;;5.83;4.60;;;;;;;;;;5056288;28;20450;-73
2023/09/13 09:19:00;;;;;;;7.37;4.67;;;;;;;;;;5056252;28;20435;-73
2023/09/13 09:21:27;;;;;;;7.37;5.17;;;;;;;;;;5055947;28;20956;-73
2023/09/13 09:23:56;;;;;;;5.80;4.03;;;;;;;;;;5056179;28;20478;-73
2023/09/13 09:26:24;;;;;;;4.80;4.13;;;;;;;;;;5055833;28;20442;-73
2023/09/13 09:28:52;;;;;;;6.30;4.97;;;;;;;;;;5055575;28;20981;-73
2023/09/13 09:31:25;;;;;;;5.70;4.60;;;30.10;39.30;;;;;;5055708;28;20455;-76
2023/09/13 09:34:03;;;;;;;7.10;4.23;;;35.30;31.70;;;;;;5056390;28;20837;-76
2023/09/13 09:36:34;;;;;;;7.10;4.27;;;34.20;33.80;;;;;;5055832;28;20430;-76
2023/09/13 09:39:04;;;;;;;6.37;5.27;;;33.30;35.50;;;;;;5056028;28;20774;-75
2023/09/13 09:41:34;;;;;;;6.90;4.63;;;32.50;36.60;;;;;;5055836;28;20461;-75
2023/09/13 09:44:02;;;;;;;6.33;4.97;;;;;;;;;;5054695;28;20523;-75
2023/09/13 09:46:35;;;;;;;6.20;5.13;;;;;;;;;;5055819;28;20437;-75
2023/09/13 09:49:03;;;;;;;6.13;4.60;;;;;;;;;;5055411;28;20453;-76
2023/09/13 09:51:31;;;;;;;7.60;5.37;;;;;;;;;;5055665;28;20441;-74
2023/09/13 09:53:58;;;;;;;6.67;5.70;;;;;;;;;;5055285;28;20449;-76
2023/09/13 09:56:26;;;;;;;7.43;5.07;;;;;;;;;;5055601;28;20440;-75
2023/09/13 09:58:53;;;;;;;6.50;5.70;;;;;;;;;;5055175;28;20469;-75
2023/09/13 10:01:20;;;;;;;6.73;4.93;;;;;;;;;;5055134;28;20495;-75
2023/09/13 10:03:54;;;;;;;5.73;5.00;;;;;;;;;;5055249;28;20554;-75
2023/09/13 10:06:23;;;;;;;7.03;4.83;;;;;;;;;;5055003;28;20418;-75
2023/09/13 10:08:51;;;;;;;6.73;5.00;;;;;;;;;;5055247;28;20437;-75
2023/09/13 10:11:19;;;;;;;6.43;5.20;;;;;;;;;;5054751;28;20862;-76
2023/09/13 10:13:46;;;;;;;5.87;4.90;;;;;;;;;;5055189;28;20491;-75
2023/09/13 10:16:14;;;;;;;7.40;5.60;;;;;;;;;;5054997;28;20483;-75
2023/09/13 10:18:45;;;;;;;5.80;4.43;;;;;;;;;;5055373;28;20429;-75
2023/09/13 10:21:15;;;;;;;8.60;6.80;;;;;;;;;;5055047;28;20865;-75
2023/09/13 10:23:43;;;;;;;7.07;4.83;;;;;;;;;;5054687;28;20539;-75
2023/09/13 10:26:13;;;;;;;8.07;5.63;;;;;;;;;;5054987;28;20425;-75
2023/09/13 10:28:42;;;;;;;7.80;5.80;;;;;;;;;;5054908;28;20799;-75
2023/09/13 10:31:13;;;;;;;8.90;4.80;;;;;;;;;;5054809;28;20465;-75
2023/09/13 10:33:41;;;;;;;8.00;5.37;;;;;;;;;;5054967;28;20428;-75
2023/09/13 10:36:09;;;;;;;7.67;4.90;;;;;;;;;;5054823;28;20498;-75
2023/09/13 10:38:39;;;;;;;7.20;4.90;;;;;;;;;;5054992;28;20433;-75
2023/09/13 10:41:13;;;;;;;9.80;5.80;;;;;;;;;;5054915;28;20559;-75
2023/09/13 10:43:41;;;;;;;6.20;5.27;;;;;;;;;;5054964;28;20475;-75
2023/09/13 10:46:08;;;;;;;7.17;4.47;;;;;;;;;;5054233;28;20496;-75
2023/09/13 10:48:36;;;;;;;6.00;4.93;;;;;;;;;;5054821;28;20444;-75
2023/09/13 10:51:05;;;;;;;7.10;5.77;;;;;;;;;;5054419;28;20429;-75
2023/09/13 10:53:33;;;;;;;5.33;4.60;;;;;;;;;;5054457;28;20441;-75
2023/09/13 10:56:07;;;;;;;9.20;5.77;;;;;;;;;;5053995;28;20488;-75
2023/09/13 10:58:34;;;;;;;5.70;4.37;;;;;;;;;;5053837;28;20497;-75
2023/09/13 11:01:02;;;;;;;7.67;4.80;;;;;;;;;;5054337;28;20430;-75
2023/09/13 11:03:29;;;;;;;5.80;4.80;;;;;;;;;;5053890;28;20796;-75
2023/09/13 11:05:57;;;;;;;5.87;4.73;;;;;;;;;;5054171;28;20575;-75
2023/09/13 11:08:31;;;;;;;11.37;5.53;;;;;;;;;;5054065;28;20531;-76
2023/09/13 11:11:09;;;;;;;5.57;5.00;;;;;;;;;;5054092;28;20768;-75
2023/09/13 11:13:38;;;;;;;6.20;4.90;;;;;;;;;;5053699;28;20433;-76
2023/09/13 11:16:07;;;;;;;5.60;4.53;;;;;;;;;;5053693;28;20954;-75
2023/09/13 11:18:34;;;;;;;6.83;4.53;;;;;;;;;;5053993;28;20816;-75
2023/09/13 11:21:06;;;;;;;7.30;5.50;;;;;;;;;;5053650;28;20430;-76
2023/09/13 11:23:44;;;;;;;7.30;5.00;;;;;;;;;;5053955;28;20556;-75
2023/09/13 11:26:14;;;;;;;7.17;5.37;;;;;;;;;;5053967;28;20823;-75
2023/09/13 11:28:45;;;;;;;6.60;5.53;;;;;;;;;;5053863;28;20437;-75
2023/09/13 11:31:17;;;;;;;7.53;4.93;;;;;;;;;;5053398;28;20922;-75
2023/09/13 11:33:47;;;;;;;6.60;4.23;;;;;;;;;;5053430;28;20426;-75
2023/09/13 11:36:18;;;;;;;5.77;4.80;;;;;;;;;;5053962;28;20434;-75
2023/09/13 11:38:45;;;;;;;7.90;5.20;;;;;;;;;;5053736;28;20855;-75
2023/09/13 11:41:18;;;;;;;15.20;5.70;;;;;;;;;;5053723;28;20492;-75
2023/09/13 11:43:46;;;;;;;10.40;6.73;;;;;;;;;;5053151;28;20543;-76
2023/09/13 11:46:13;;;;;;;17.50;6.37;;;;;;;;;;5053642;28;20491;-76
2023/09/13 11:48:41;;;;;;;8.40;5.30;;;;;;;;;;5053521;28;20437;-76
2023/09/13 11:51:12;;;;;;;8.10;5.13;;;;;;;;;;5053110;28;20433;-76
2023/09/13 11:53:39;;;;;;;10.57;5.80;;;;;;;;;;5053354;28;20437;-76
2023/09/13 11:56:07;;;;;;;6.47;4.97;;;;;;;;;;5053432;28;20465;-76
2023/09/13 11:58:49;;;;;;;7.37;5.00;;;;;;;;;;5053193;28;20475;-76
2023/09/13 12:01:16;;;;;;;6.90;4.70;;;;;;;;;;5053414;28;20752;-75
2023/09/13 12:03:45;;;;;;;6.20;4.07;;;31.80;38.00;;;;;;5053318;28;20818;-76
2023/09/13 12:06:12;;;;;;;8.33;4.10;;;;;;;;;;5053159;28;20877;-75
2023/09/13 12:08:40;;;;;;;5.30;4.10;;;;;;;;;;5052569;28;20503;-76
2023/09/13 12:11:08;;;;;;;5.30;4.43;;;;;;;;;;5052915;28;20976;-76
2023/09/13 12:13:42;;;;;;;7.60;4.00;;;;;;;;;;5053139;28;20863;-76
2023/09/13 12:16:11;;;;;;;12.33;4.53;;;;;;;;;;5053067;28;20429;-75
2023/09/13 12:18:39;;;;;;;6.33;4.07;;;;;;;;;;5052794;28;20460;-76
2023/09/13 12:21:07;;;;;;;5.57;3.90;;;;;;;;;;5053149;28;20472;-75
2023/09/13 12:23:36;;;;;;;7.00;4.83;;;;;;;;;;5052945;28;20473;-76
2023/09/13 12:26:04;;;;;;;7.50;5.43;;;;;;;;;;5053040;28;20469;-75
2023/09/13 12:28:32;;;;;;;7.30;4.97;;;;;;;;;;5052525;28;20483;-76
2023/09/13 12:30:59;;;;;;;12.43;9.60;;;;;;;;;;5052932;28;20437;-76
2023/09/13 12:33:28;;;;;;;10.30;8.87;;;;;;;;;;5052896;28;20437;-76
2023/09/13 12:35:55;;;;;;;8.80;7.90;;;;;;;;;;5052688;28;20491;-76
2023/09/13 12:38:22;;;;;;;9.97;7.23;;;;;;;;;;5053024;28;20855;-76
2023/09/13 12:40:52;;;;;;;10.97;7.13;;;;;;;;;;5052629;28;20849;-76
2023/09/13 12:43:20;;;;;;;8.37;6.47;;;;;;;;;;5052384;28;20469;-75
2023/09/13 12:45:48;;;;;;;11.00;7.10;;;;;;;;;;5052641;28;20451;-76
2023/09/13 12:48:15;;;;;;;9.43;6.93;;;;;;;;;;5052843;28;20789;-75
2023/09/13 12:50:44;;;;;;;10.87;7.23;;;;;;;;;;5052877;28;20467;-76
2023/09/13 12:53:11;;;;;;;12.00;7.80;;;;;;;;;;5052506;28;20473;-76
2023/09/13 12:55:39;;;;;;;9.83;7.83;;;;;;;;;;5052891;28;20433;-75
2023/09/13 12:58:07;;;;;;;7.33;6.40;;;;;;;;;;5052658;28;20472;-75
2023/09/13 13:00:34;;;;;;;8.13;7.17;;;;;;;;;;5052806;28;20461;-75
2023/09/13 13:03:03;;;;;;;13.70;7.00;;;;;;;;;;5052620;28;20816;-75
2023/09/13 13:05:30;;;;;;;14.13;7.67;;;;;;;;;;5052377;28;20962;-75
2023/09/13 13:08:05;;;;;;;10.30;7.10;;;;;;;;;;5052355;28;20433;-75
2023/09/13 13:10:35;;;;;;;8.40;6.60;;;;;;;;;;5052457;28;20421;-75
2023/09/13 13:13:03;;;;;;;8.53;6.43;;;;;;;;;;5053042;28;20433;-76
2023/09/13 13:15:33;;;;;;;8.73;6.93;;;;;;;;;;5052645;28;20464;-75
2023/09/13 13:18:00;;;;;;;8.80;6.83;;;;;;;;;;5052776;28;20452;-75
2023/09/13 13:20:27;;;;;;;8.87;7.50;;;;;;;;;;5054773;28;20433;-75
2023/09/13 13:22:55;;;;;;;10.53;7.30;;;;;;;;;;5055936;28;20441;-75
2023/09/13 13:25:23;;;;;;;9.83;7.10;;;;;;;;;;5056170;28;20477;-75
2023/09/13 13:27:51;;;;;;;8.57;6.83;;;;;;;;;;5056249;28;20464;-76
2023/09/13 13:30:18;;;;;;;9.10;6.70;;;;;;;;;;5056357;28;20445;-75
2023/09/13 13:32:45;;;;;;;9.80;7.50;;;;;;;;;;5055751;28;20483;-75
2023/09/13 13:35:12;;;;;;;10.80;7.77;;;;;;;;;;5056055;28;20456;-76
2023/09/13 13:37:45;;;;;;;7.93;7.07;;;;;;;;;;5055571;28;20433;-76
2023/09/13 13:40:13;;;;;;;13.27;6.53;;;;;;;;;;5055978;28;20500;-76
2023/09/13 13:42:41;;;;;;;9.43;7.37;;;;;;;;;;5055859;28;20441;-75
2023/09/13 13:45:11;;;;;;;7.90;6.43;;;;;;;;;;5055449;28;20534;-75
2023/09/13 13:47:39;;;;;;;11.23;6.50;;;;;;;;;;5055841;28;20452;-75
2023/09/13 13:50:06;;;;;;;10.27;6.57;;;;;;;;;;5055433;28;20950;-75
2023/09/13 13:52:34;;;;;;;7.37;6.53;;;;;;;;;;5055610;28;20487;-75
2023/09/13 13:55:01;;;;;;;9.50;5.77;;;;;;;;;;5055641;28;20438;-76
2023/09/13 13:57:37;;;;;;;7.80;5.93;;;;;;;;;;5055217;28;20461;-76
2023/09/13 14:00:07;;;;;;;6.83;5.27;;;;;;;;;;5055058;28;20508;-75
2023/09/13 14:02:36;;;;;;;5.90;4.80;;;;;;;;;;5055445;28;20458;-75
2023/09/13 14:05:07;;;;;;;6.30;4.10;;;;;;;;;;5055413;28;20821;-75
2023/09/13 14:07:35;;;;;;;6.07;4.60;;;;;;;;;;5055350;28;20462;-75
2023/09/13 14:10:02;;;;;;;5.47;4.30;;;;;;;;;;5055437;28;20433;-75
2023/09/13 14:12:29;;;;;;;7.30;4.70;;;;;;;;;;5055176;28;20793;-75
2023/09/13 14:14:57;;;;;;;7.07;5.17;;;;;;;;;;5055269;28;20476;-75
2023/09/13 14:17:29;;;;;;;6.40;4.43;;;;;;;;;;5055093;28;20433;-75
2023/09/13 14:19:56;;;;;;;6.20;4.13;;;;;;;;;;5054847;28;20422;-76
2023/09/13 14:22:24;;;;;;;6.33;3.47;;;;;;;;;;5055174;28;20429;-75
2023/09/13 14:24:51;;;;;;;6.17;4.07;;;;;;;;;;5054692;28;20770;-75
2023/09/13 14:27:24;;;;;;;6.67;5.20;;;;;;;;;;5055064;28;20850;-75
2023/09/13 14:29:55;;;;;;;5.13;3.60;;;;;;;;;;5054258;28;20959;-75
2023/09/13 14:32:22;;;;;;;4.77;3.60;;;;;;;;;;5054794;28;20505;-75
2023/09/13 14:34:52;;;;;;;6.40;4.07;;;;;;;;;;5054552;28;20437;-76
2023/09/13 14:37:23;;;;;;;7.40;3.23;;;;;;;;;;5054830;28;20445;-75
2023/09/13 14:39:50;;;;;;;5.90;4.13;;;;;;;;;;5054837;28;20429;-75
2023/09/13 14:42:18;;;;;;;4.40;3.60;;;;;;;;;;5054352;28;20981;-75
2023/09/13 14:44:45;;;;;;;6.27;4.13;;;;;;;;;;5054627;28;20468;-75
2023/09/13 14:47:15;;;;;;;6.10;3.93;;;;;;;;;;5054726;28;20503;-75
2023/09/13 14:49:42;;;;;;;7.40;4.40;;;;;;;;;;5054734;28;20480;-76